Time;durP1;ratioP1;P1;durP2;ratioP2;P2;SDS_P1;SDS_P2;PMS_P1;PMS_P2;Temp;Humidity;BMP_temperature;BMP_pressure;BME280_temperature;BME280_humidity;BME280_pressure;Samples;Min_cycle;Max_cycle;Signal;HPM_P1;HPM_P2
2023/01/04 00:02:22;;;;;;;4.93;2.00;;;8.90;99.90;;;;;;5051031;28;20068;-71
2023/01/04 00:04:48;;;;;;;4.22;1.55;;;8.80;99.90;;;;;;5010877;28;20029;-69
2023/01/04 00:07:26;;;;;;;6.47;2.08;;;8.80;99.90;;;;;;4997024;28;20141;-68
2023/01/04 00:09:52;;;;;;;5.63;2.63;;;8.70;99.90;;;;;;5029164;28;20090;-67
2023/01/04 00:12:24;;;;;;;4.15;1.58;;;8.60;99.90;;;;;;5033399;28;20053;-67
2023/01/04 00:14:50;;;;;;;2.92;1.48;;;8.60;99.90;;;;;;5045926;28;20045;-67
2023/01/04 00:17:22;;;;;;;6.18;2.67;;;8.50;99.90;;;;;;5046699;28;20481;-68
2023/01/04 00:19:48;;;;;;;9.02;2.65;;;8.50;99.90;;;;;;5051269;28;20069;-68
2023/01/04 00:22:20;;;;;;;4.15;2.17;;;8.50;99.90;;;;;;5047436;28;20087;-66
2023/01/04 00:24:52;;;;;;;9.02;2.45;;;8.50;99.90;;;;;;5030758;28;20086;-66
2023/01/04 00:27:25;;;;;;;7.70;2.50;;;8.50;99.90;;;;;;5012374;28;20053;-67
2023/01/04 00:29:51;;;;;;;7.35;2.35;;;8.40;99.90;;;;;;5031679;28;20084;-67
2023/01/04 00:32:23;;;;;;;5.40;2.70;;;8.40;99.90;;;;;;5032528;28;20088;-67
2023/01/04 00:34:48;;;;;;;10.10;1.88;;;8.50;99.90;;;;;;4998274;28;20086;-68
2023/01/04 00:37:21;;;;;;;5.85;2.60;;;8.50;99.90;;;;;;5013849;28;20037;-67
2023/01/04 00:39:47;;;;;;;4.65;1.70;;;8.50;99.90;;;;;;5014186;28;20037;-65
2023/01/04 00:42:19;;;;;;;3.08;1.85;;;8.50;99.90;;;;;;5031740;28;20470;-66
2023/01/04 00:44:45;;;;;;;6.80;2.33;;;8.50;99.90;;;;;;5014259;28;20041;-67
2023/01/04 00:47:17;;;;;;;4.75;2.00;;;8.50;99.90;;;;;;4995468;28;20054;-66
2023/01/04 00:49:56;;;;;;;3.67;1.67;;;8.50;99.90;;;;;;4991561;28;20140;-68
2023/01/04 00:52:29;;;;;;;3.30;1.50;;;8.50;99.90;;;;;;4992132;28;20046;-67
2023/01/04 00:54:54;;;;;;;4.28;2.28;;;8.50;99.90;;;;;;4992176;28;20046;-68
2023/01/04 00:57:27;;;;;;;5.90;2.50;;;8.50;99.90;;;;;;4991040;28;20042;-67
2023/01/04 00:59:53;;;;;;;3.42;2.03;;;8.40;99.90;;;;;;4992153;28;20042;-65
2023/01/04 01:02:25;;;;;;;6.53;2.28;;;8.40;99.90;;;;;;4975219;28;20057;-68
2023/01/04 01:04:51;;;;;;;12.25;3.38;;;8.40;99.90;;;;;;4991983;28;20077;-67
2023/01/04 01:07:23;;;;;;;7.13;2.70;;;8.40;99.90;;;;;;4992467;28;20077;-66
2023/01/04 01:09:48;;;;;;;3.15;1.55;;;8.40;99.90;;;;;;4992500;28;20042;-65
2023/01/04 01:12:21;;;;;;;9.55;3.20;;;8.40;99.90;;;;;;4991849;28;20545;-67
2023/01/04 01:14:47;;;;;;;7.68;2.55;;;8.40;99.90;;;;;;4974854;28;20038;-67
2023/01/04 01:17:19;;;;;;;4.13;1.83;;;8.30;99.90;;;;;;4974773;28;20116;-65
2023/01/04 01:19:44;;;;;;;6.30;2.30;;;8.30;99.90;;;;;;4991882;28;20048;-67
2023/01/04 01:22:23;;;;;;;4.80;1.35;;;8.30;99.90;;;;;;4992355;28;20034;-66
2023/01/04 01:24:49;;;;;;;6.28;2.42;;;8.30;99.90;;;;;;4991414;28;20047;-66
2023/01/04 01:27:21;;;;;;;7.45;2.47;;;8.30;99.90;;;;;;4991131;28;20479;-65
2023/01/04 01:29:47;;;;;;;3.80;1.77;;;8.30;99.90;;;;;;4974624;28;20047;-66
2023/01/04 01:32:19;;;;;;;4.35;1.65;;;8.30;99.90;;;;;;4958515;28;20053;-67
2023/01/04 01:34:44;;;;;;;6.97;3.00;;;8.30;99.90;;;;;;4991499;28;20050;-66
2023/01/04 01:37:17;;;;;;;7.15;2.60;;;8.30;99.90;;;;;;4974338;28;20420;-66
2023/01/04 01:39:42;;;;;;;4.88;2.17;;;8.30;99.90;;;;;;4991940;28;20046;-65
2023/01/04 01:42:25;;;;;;;7.35;2.90;;;8.40;99.90;;;;;;4973760;28;20089;-66
2023/01/04 01:44:58;;;;;;;4.70;1.80;;;8.40;99.90;;;;;;4991686;28;20505;-65
2023/01/04 01:47:47;;;;;;;2.95;1.50;;;8.40;99.90;;;;;;5002635;28;20069;-67
2023/01/04 01:50:43;;;;;;;2.15;1.30;;;8.40;99.90;;;;;;5011016;28;20151;-67
2023/01/04 01:53:17;;;;;;;8.70;2.05;;;8.50;99.90;;;;;;5010203;28;20129;-66
2023/01/04 01:55:43;;;;;;;4.05;1.48;;;8.50;99.90;;;;;;5010901;28;20112;-67
2023/01/04 01:58:23;;;;;;;3.55;1.70;;;8.50;99.90;;;;;;5011269;28;20045;-67
2023/01/04 02:00:56;;;;;;;2.72;1.65;;;8.50;99.90;;;;;;5010965;28;20177;-67
2023/01/04 02:03:35;;;;;;;3.65;1.98;;;8.50;99.90;;;;;;5011253;28;20120;-66
2023/01/04 02:06:03;;;;;;;3.38;1.02;;;8.50;99.90;;;;;;4993548;28;20049;-67
2023/01/04 02:08:36;;;;;;;3.50;1.65;;;8.50;99.90;;;;;;4975754;28;20084;-66
2023/01/04 02:11:02;;;;;;;3.28;1.23;;;8.50;99.90;;;;;;4993090;28;20076;-68
2023/01/04 02:16:46;;;;;;;2.03;1.13;;;8.50;99.90;;;;;;4993029;28;20053;-66
2023/01/04 02:19:33;;;;;;;2.15;1.13;;;8.50;99.90;;;;;;4993146;28;20068;-68
2023/01/04 02:22:31;;;;;;;3.25;1.30;;;8.60;99.90;;;;;;4992957;28;20041;-69
2023/01/04 02:25:24;;;;;;;2.55;1.27;;;8.60;99.90;;;;;;5010813;28;20425;-67
2023/01/04 02:28:22;;;;;;;5.63;1.70;;;8.60;99.90;;;;;;4992991;28;20046;-67
2023/01/04 02:30:57;;;;;;;3.53;1.05;;;8.60;99.90;;;;;;4992594;28;20104;-68
2023/01/04 02:33:49;;;;;;;1.83;1.00;;;8.60;99.90;;;;;;5010746;28;20057;-68
2023/01/04 02:36:59;;;;;;;2.85;1.83;;;8.70;99.90;;;;;;4992222;28;20584;-70
2023/01/04 02:39:58;;;;;;;2.85;1.48;;;8.70;99.90;;;;;;5010866;28;20122;-68
2023/01/04 02:45:35;;;;;;;2.25;1.38;;;8.80;99.90;;;;;;4994257;28;20128;-67
2023/01/04 02:51:27;;;;;;;2.60;1.98;;;8.80;99.90;;;;;;5010096;28;20462;-69
2023/01/04 02:54:00;;;;;;;5.07;2.05;;;8.80;99.90;;;;;;5010791;28;20041;-69
2023/01/04 02:56:34;;;;;;;6.35;2.40;;;8.80;99.90;;;;;;5010854;28;20434;-68
2023/01/04 02:59:37;;;;;;;4.13;2.17;;;8.90;99.90;;;;;;4992293;28;20081;-68
2023/01/04 03:08:46;;;;;;;5.35;2.92;;;9.00;99.90;;;;;;4992728;28;20482;-68
2023/01/04 03:14:19;;;;;;;4.25;2.78;;;9.10;99.90;;;;;;5010283;28;20052;-68
2023/01/04 03:16:46;;;;;;;4.05;3.17;;;9.10;99.90;;;;;;4992810;28;20462;-67
2023/01/04 03:37:10;;;;;;;9.20;6.25;;;9.40;99.90;;;;;;4992380;28;20045;-68
2023/01/04 03:48:43;;;;;;;8.05;5.70;;;9.50;99.90;;;;;;4973099;28;20104;-69
2023/01/04 03:51:21;;;;;;;10.65;5.75;;;9.60;99.90;;;;;;4993856;28;20542;-68
2023/01/04 03:54:15;;;;;;;7.28;5.35;;;9.60;99.90;;;;;;4976089;28;20089;-67
2023/01/04 03:56:43;;;;;;;6.55;4.50;;;9.60;99.90;;;;;;4976275;28;20112;-68
2023/01/04 03:59:18;;;;;;;5.47;3.85;;;9.70;99.90;;;;;;4976387;28;20035;-69
2023/01/04 04:01:44;;;;;;;8.57;4.88;;;9.80;99.90;;;;;;4975672;28;20041;-68
2023/01/04 04:09:59;;;;;;;9.70;6.60;;;9.90;99.90;;;;;;4972825;28;20057;-68
2023/01/04 04:12:31;;;;;;;10.35;7.30;;;9.90;99.90;;;;;;4984901;28;20384;-68
2023/01/04 04:14:56;;;;;;;10.50;5.47;;;9.90;99.90;;;;;;4975709;28;20579;-68
2023/01/04 04:17:29;;;;;;;9.88;6.45;;;10.00;99.90;;;;;;4993316;28;20043;-68
2023/01/04 04:19:55;;;;;;;9.73;7.00;;;10.00;99.90;;;;;;4993310;28;20046;-69
2023/01/04 04:22:27;;;;;;;12.40;6.65;;;10.10;99.90;;;;;;4959362;28;20061;-67
2023/01/04 04:24:52;;;;;;;8.73;6.63;;;10.10;99.90;;;;;;4993483;28;20101;-68
2023/01/04 04:27:25;;;;;;;10.57;7.72;;;10.10;99.90;;;;;;4993380;28;20038;-67
2023/01/04 04:29:50;;;;;;;10.70;7.00;;;10.10;99.90;;;;;;4975479;28;20112;-68
2023/01/04 04:32:23;;;;;;;12.27;7.03;;;10.10;99.90;;;;;;4975660;28;20045;-67
2023/01/04 04:34:48;;;;;;;9.38;6.32;;;10.20;99.90;;;;;;4992922;28;20125;-67
2023/01/04 04:37:21;;;;;;;8.07;6.20;;;10.20;99.90;;;;;;4975118;28;20130;-68
2023/01/04 04:39:53;;;;;;;8.93;6.53;;;10.20;99.90;;;;;;4975405;28;20125;-68
2023/01/04 04:42:26;;;;;;;7.88;5.63;;;10.20;99.90;;;;;;4992570;28;20431;-69
2023/01/04 04:44:51;;;;;;;7.50;5.18;;;10.20;99.90;;;;;;4975689;28;20419;-69
2023/01/04 04:47:24;;;;;;;8.35;5.32;;;10.20;99.90;;;;;;5000783;28;20058;-69
2023/01/04 04:50:04;;;;;;;8.73;5.22;;;10.30;99.90;;;;;;4978808;28;20100;-68
2023/01/04 04:52:36;;;;;;;9.10;5.43;;;10.30;99.90;;;;;;4978995;28;20037;-67
2023/01/04 04:55:01;;;;;;;8.05;5.18;;;10.30;99.90;;;;;;4978911;28;20498;-69
2023/01/04 04:57:34;;;;;;;8.07;5.65;;;10.30;99.90;;;;;;5011606;28;20121;-68
2023/01/04 04:59:59;;;;;;;9.30;6.50;;;10.30;99.90;;;;;;4994727;28;20089;-67
2023/01/04 05:02:32;;;;;;;8.10;5.97;;;10.30;99.90;;;;;;4978789;28;20435;-67
2023/01/04 05:04:57;;;;;;;11.13;5.88;;;10.30;99.90;;;;;;4994198;28;20128;-67
2023/01/04 05:07:30;;;;;;;7.10;5.53;;;10.40;99.90;;;;;;4994754;28;20565;-68
2023/01/04 05:09:55;;;;;;;8.52;5.47;;;10.40;99.90;;;;;;5011433;28;20077;-67
2023/01/04 05:15:12;;;;;;;7.32;5.22;;;10.40;99.90;;;;;;4992663;28;20056;-68
2023/01/04 05:17:45;;;;;;;8.48;5.93;;;10.40;99.90;;;;;;4991766;28;20038;-68
2023/01/04 05:20:11;;;;;;;7.82;5.38;;;10.40;99.90;;;;;;4991189;28;20111;-68
2023/01/04 05:22:43;;;;;;;8.35;5.70;;;10.40;99.90;;;;;;4992207;28;20661;-69
2023/01/04 05:25:10;;;;;;;7.43;5.35;;;10.40;99.90;;;;;;4991926;28;20124;-68
2023/01/04 05:27:44;;;;;;;8.27;5.93;;;10.40;99.90;;;;;;4991019;28;20177;-66
2023/01/04 05:33:34;;;;;;;9.23;6.30;;;10.40;99.90;;;;;;4931802;29;20062;-69
2023/01/04 05:36:02;;;;;;;8.60;5.50;;;10.50;99.90;;;;;;4931816;29;20539;-69
2023/01/04 05:38:41;;;;;;;10.25;6.28;;;10.50;99.90;;;;;;4915206;29;20052;-71
2023/01/04 05:42:23;;;;;;;9.35;5.50;;;10.50;99.90;;;;;;4931656;29;20110;-69
2023/01/04 05:43:59;;;;;;;9.38;6.50;;;10.50;99.90;;;;;;4915665;29;20039;-70
2023/01/04 05:46:24;;;;;;;10.25;6.65;;;10.50;99.90;;;;;;4921189;28;20485;-70
2023/01/04 05:49:10;;;;;;;9.73;6.13;;;10.50;99.90;;;;;;4935020;29;20247;-68
2023/01/04 05:51:35;;;;;;;10.73;6.53;;;10.50;99.90;;;;;;4934884;29;20059;-70
2023/01/04 05:54:08;;;;;;;14.25;7.18;;;10.50;99.90;;;;;;4949921;28;20400;-69
2023/01/04 05:56:33;;;;;;;10.63;6.72;;;10.60;99.90;;;;;;4950420;29;20424;-69
2023/01/04 05:59:06;;;;;;;13.45;6.90;;;10.60;99.90;;;;;;4934102;29;20035;-69
2023/01/04 06:01:31;;;;;;;11.23;7.28;;;10.60;99.90;;;;;;4934451;29;20118;-70
2023/01/04 06:04:04;;;;;;;13.68;7.72;;;10.60;99.90;;;;;;4968640;28;20154;-70
2023/01/04 06:06:56;;;;;;;14.93;7.88;;;10.60;99.90;;;;;;5029672;28;20045;-70
2023/01/04 06:09:29;;;;;;;11.40;7.70;;;10.60;99.90;;;;;;5013010;28;20058;-70
2023/01/04 06:11:54;;;;;;;11.60;7.10;;;10.70;99.90;;;;;;5030318;28;20080;-70
2023/01/04 06:14:27;;;;;;;14.57;7.20;;;10.70;99.90;;;;;;4996218;28;20426;-69
2023/01/04 06:16:52;;;;;;;13.65;6.80;;;10.60;99.90;;;;;;5012850;28;20134;-69
2023/01/04 06:19:25;;;;;;;12.35;5.97;;;10.70;99.90;;;;;;5013248;28;20100;-70
2023/01/04 06:21:51;;;;;;;11.27;5.63;;;10.70;99.90;;;;;;4992944;28;20095;-69
2023/01/04 06:24:23;;;;;;;10.48;6.10;;;10.70;99.90;;;;;;5013300;28;20049;-70
2023/01/04 06:26:48;;;;;;;7.30;4.97;;;10.70;99.90;;;;;;5026219;28;20053;-70
2023/01/04 06:29:21;;;;;;;10.35;6.28;;;10.80;99.90;;;;;;5007970;28;20042;-71
2023/01/04 06:31:46;;;;;;;9.05;5.68;;;10.80;99.90;;;;;;5030966;28;20049;-70
2023/01/04 06:34:20;;;;;;;8.32;4.90;;;10.80;99.90;;;;;;5009778;28;20045;-70
2023/01/04 06:36:45;;;;;;;8.35;5.05;;;10.80;99.90;;;;;;5030968;28;20095;-69
2023/01/04 06:39:24;;;;;;;8.68;5.20;;;10.80;99.90;;;;;;5013183;28;20038;-71
2023/01/04 06:41:49;;;;;;;7.55;4.90;;;10.80;99.90;;;;;;5013001;28;20079;-71
2023/01/04 06:44:22;;;;;;;9.13;5.05;;;10.80;99.90;;;;;;4996895;28;20408;-71
2023/01/04 06:46:47;;;;;;;7.63;5.20;;;10.80;99.90;;;;;;5011505;28;20069;-72
2023/01/04 06:49:33;;;;;;;8.15;5.43;;;10.80;99.90;;;;;;5009069;28;20108;-70
2023/01/04 06:51:58;;;;;;;6.68;5.00;;;10.80;99.90;;;;;;5009563;28;20042;-71
2023/01/04 06:54:32;;;;;;;6.75;5.15;;;10.80;99.90;;;;;;5009843;28;20045;-70
2023/01/04 06:57:05;;;;;;;8.90;6.32;;;10.80;99.90;;;;;;5009287;28;20041;-71
2023/01/04 06:59:30;;;;;;;7.88;4.28;;;10.80;99.90;;;;;;5010932;28;20080;-69
2023/01/04 07:02:03;;;;;;;8.50;5.00;;;10.80;99.90;;;;;;5010702;28;20069;-73
2023/01/04 07:04:28;;;;;;;7.22;4.70;;;10.80;99.90;;;;;;4993399;28;20038;-72
2023/01/04 07:07:08;;;;;;;7.18;5.10;;;10.80;99.90;;;;;;5009823;28;20504;-72
2023/01/04 07:09:34;;;;;;;8.13;5.32;;;10.80;99.90;;;;;;5010465;28;20049;-73
2023/01/04 07:12:08;;;;;;;6.88;4.47;;;10.80;99.90;;;;;;5010912;28;20081;-72
2023/01/04 07:14:33;;;;;;;7.55;4.63;;;10.80;99.90;;;;;;5009590;28;20042;-71
2023/01/04 07:16:59;;;;;;;7.25;4.63;;;10.80;99.90;;;;;;5009823;28;20053;-74
2023/01/04 07:19:32;;;;;;;6.38;4.57;;;10.80;99.90;;;;;;5011017;28;20045;-73
2023/01/04 07:21:58;;;;;;;8.48;5.15;;;10.80;99.90;;;;;;5009660;28;20398;-73
2023/01/04 07:24:31;;;;;;;8.88;5.18;;;10.80;99.90;;;;;;5011335;28;20037;-72
2023/01/04 07:27:05;;;;;;;8.60;5.43;;;10.80;99.90;;;;;;5014551;28;20508;-71
2023/01/04 07:29:30;;;;;;;8.95;4.50;;;10.80;99.90;;;;;;5014763;28;20042;-70
2023/01/04 07:31:56;;;;;;;11.02;6.13;;;10.80;99.90;;;;;;4996274;28;20034;-70
2023/01/04 07:34:31;;;;;;;12.48;6.68;;;10.70;99.90;;;;;;5013231;28;20045;-70
2023/01/04 07:36:56;;;;;;;12.23;6.78;;;10.80;99.90;;;;;;5013525;28;20049;-68
2023/01/04 07:39:29;;;;;;;12.23;6.80;;;10.80;99.90;;;;;;5012827;28;20038;-68
2023/01/04 07:41:54;;;;;;;15.38;7.82;;;10.80;99.90;;;;;;5013616;28;20502;-69
2023/01/04 07:44:27;;;;;;;11.88;7.75;;;10.80;99.90;;;;;;5012599;28;20040;-70
2023/01/04 07:47:06;;;;;;;9.85;6.95;;;10.80;99.90;;;;;;5015525;28;20062;-71
2023/01/04 07:49:38;;;;;;;12.48;8.27;;;10.80;99.90;;;;;;5006641;28;20454;-70
2023/01/04 07:52:11;;;;;;;10.50;7.20;;;10.80;99.90;;;;;;5013411;28;20117;-72
2023/01/04 07:54:36;;;;;;;11.30;6.60;;;10.80;99.90;;;;;;5014108;28;20046;-71
2023/01/04 07:57:09;;;;;;;14.27;7.38;;;10.80;99.90;;;;;;5014111;28;20057;-71
2023/01/04 07:59:41;;;;;;;13.95;7.65;;;10.80;99.90;;;;;;5013998;28;20113;-69
2023/01/04 08:02:17;;;;;;;10.05;7.05;;;10.80;99.90;;;;;;5013127;28;20394;-72
2023/01/04 08:04:42;;;;;;;12.80;6.18;;;10.80;99.90;;;;;;5013064;28;20494;-71
2023/01/04 08:07:15;;;;;;;12.52;6.90;;;10.80;99.90;;;;;;5014301;28;20116;-72
2023/01/04 08:09:40;;;;;;;17.67;7.47;;;10.80;99.90;;;;;;5012821;28;20057;-71
2023/01/04 08:12:15;;;;;;;11.55;6.95;;;10.80;99.90;;;;;;5012380;28;20038;-71
2023/01/04 08:14:40;;;;;;;11.77;6.68;;;10.80;99.90;;;;;;5007756;28;20049;-68
2023/01/04 08:17:13;;;;;;;15.40;6.90;;;10.80;99.90;;;;;;4995508;28;20049;-70
2023/01/04 08:19:38;;;;;;;10.60;6.47;;;10.80;99.90;;;;;;5012629;28;20450;-68
2023/01/04 08:22:11;;;;;;;10.65;6.13;;;10.90;99.90;;;;;;4995420;28;20049;-69
2023/01/04 08:24:36;;;;;;;13.60;6.22;;;10.90;99.90;;;;;;4995544;28;20398;-71
2023/01/04 08:27:09;;;;;;;10.48;5.85;;;10.90;99.90;;;;;;5011312;28;20041;-70
2023/01/04 08:29:36;;;;;;;7.28;4.40;;;10.90;99.90;;;;;;5012996;28;20049;-70
2023/01/04 08:32:02;;;;;;;10.38;5.57;;;10.90;99.90;;;;;;4995673;28;20381;-70
2023/01/04 08:34:35;;;;;;;9.23;5.22;;;10.90;99.90;;;;;;5011791;28;20132;-68
2023/01/04 08:37:07;;;;;;;9.52;5.07;;;10.90;99.90;;;;;;5012823;28;20049;-71
2023/01/04 08:39:34;;;;;;;7.38;4.63;;;10.90;99.90;;;;;;4994942;28;20510;-71
2023/01/04 08:42:08;;;;;;;9.07;5.18;;;10.90;99.90;;;;;;4994612;28;20108;-71
2023/01/04 08:44:33;;;;;;;6.22;3.67;;;10.90;99.90;;;;;;4995172;28;20041;-71
2023/01/04 08:47:13;;;;;;;6.75;3.88;;;10.90;99.90;;;;;;4996287;28;20446;-70
2023/01/04 08:49:45;;;;;;;6.95;3.67;;;11.00;99.90;;;;;;4995342;28;20449;-72
2023/01/04 08:52:18;;;;;;;5.82;3.58;;;11.00;99.90;;;;;;4978902;28;20042;-71
2023/01/04 08:54:43;;;;;;;6.70;3.10;;;11.00;99.90;;;;;;4994360;28;20049;-72
2023/01/04 08:57:16;;;;;;;3.85;2.20;;;11.00;99.90;;;;;;5031850;28;20044;-71
2023/01/04 08:59:41;;;;;;;6.75;3.08;;;11.00;99.90;;;;;;5032395;28;20069;-71
2023/01/04 09:02:29;;;;;;;2.92;1.85;;;11.00;99.90;;;;;;5031607;28;20069;-70
2023/01/04 09:05:02;;;;;;;3.83;1.88;;;11.00;99.90;;;;;;5014540;28;20063;-70
2023/01/04 09:07:47;;;;;;;4.90;2.00;;;11.00;99.90;;;;;;5017688;28;20050;-71
2023/01/04 09:10:12;;;;;;;5.65;2.20;;;11.00;99.90;;;;;;4997769;28;20046;-73
2023/01/04 09:12:46;;;;;;;5.35;2.28;;;11.00;99.90;;;;;;4998082;28;20048;-72
2023/01/04 09:15:12;;;;;;;3.70;2.13;;;11.00;99.90;;;;;;5010521;28;20045;-72
2023/01/04 09:17:45;;;;;;;4.78;1.80;;;11.00;99.90;;;;;;5014274;28;20157;-72
2023/01/04 09:20:10;;;;;;;6.00;2.28;;;11.00;99.90;;;;;;5032050;28;20084;-71
2023/01/04 09:22:43;;;;;;;5.90;2.15;;;10.90;99.90;;;;;;4997431;28;20486;-72
2023/01/04 09:25:08;;;;;;;6.22;2.83;;;10.90;99.90;;;;;;5014383;28;20120;-70
2023/01/04 09:27:41;;;;;;;6.90;2.40;;;11.00;99.90;;;;;;5031974;28;20605;-72
2023/01/04 09:30:07;;;;;;;5.90;2.58;;;10.90;99.90;;;;;;5031387;28;20045;-71
2023/01/04 09:32:40;;;;;;;10.93;2.90;;;11.00;99.90;;;;;;5014364;28;20046;-73
2023/01/04 09:35:12;;;;;;;7.38;2.80;;;11.00;99.90;;;;;;5013973;28;20049;-72
2023/01/04 09:37:45;;;;;;;5.93;2.15;;;11.00;99.90;;;;;;5014010;28;20184;-72
2023/01/04 09:40:20;;;;;;;10.70;2.45;;;10.90;99.90;;;;;;5014661;28;20045;-72
2023/01/04 09:42:55;;;;;;;6.88;2.20;;;11.00;99.90;;;;;;5014331;28;20056;-71
2023/01/04 09:45:25;;;;;;;9.25;2.17;;;11.00;99.90;;;;;;5031839;28;20429;-72
2023/01/04 09:48:04;;;;;;;;;;;11.00;99.90;;;;;;5013815;28;20060;-73
2023/01/04 09:51:01;;;;;;;10.13;2.72;;;11.00;99.90;;;;;;5005058;28;20024;-72
2023/01/04 09:53:53;;;;;;;12.18;2.70;;;11.00;99.90;;;;;;5014348;28;20064;-70
2023/01/04 09:56:27;;;;;;;11.20;2.90;;;11.00;99.90;;;;;;5013589;28;20128;-71
2023/01/04 09:59:01;;;;;;;12.82;3.47;;;11.00;99.90;;;;;;5030862;28;20033;-71
2023/01/04 10:01:34;;;;;;;12.07;3.25;;;11.10;99.90;;;;;;5031317;28;20120;-72
2023/01/04 10:04:09;;;;;;;13.73;3.53;;;11.10;99.90;;;;;;5012898;28;20041;-75
2023/01/04 10:06:36;;;;;;;16.10;3.13;;;11.10;99.90;;;;;;5013113;28;20080;-73
2023/01/04 10:09:19;;;;;;;18.33;3.80;;;11.20;99.90;;;;;;5013308;28;20041;-72
2023/01/04 10:12:22;;;;;;;17.73;4.30;;;11.20;99.90;;;;;;5030364;28;20041;-73
2023/01/04 10:15:12;;;;;;;22.30;4.07;;;11.20;99.90;;;;;;5029830;28;20378;-74
2023/01/04 10:18:08;;;;;;;;;;;11.30;99.90;;;;;;5013423;28;20095;-71
2023/01/04 10:20:55;;;;;;;27.92;5.18;;;11.20;99.90;;;;;;5015406;28;20603;-72
2023/01/04 10:23:29;;;;;;;31.25;6.95;;;11.30;99.90;;;;;;5030564;28;20473;-72
2023/01/04 10:26:23;;;;;;;28.10;4.88;;;11.30;99.90;;;;;;5009289;28;20081;-73
2023/01/04 10:28:55;;;;;;;25.00;5.18;;;11.40;99.90;;;;;;4993084;28;20048;-73
2023/01/04 10:31:34;;;;;;;26.05;5.75;;;11.40;99.90;;;;;;4977229;28;20398;-72
2023/01/04 10:34:21;;;;;;;23.15;5.05;;;11.40;99.90;;;;;;4992687;28;20081;-72
2023/01/04 10:36:48;;;;;;;28.73;6.72;;;11.40;99.90;;;;;;4993173;28;20085;-72
2023/01/04 10:39:27;;;;;;;25.85;6.10;;;11.50;99.90;;;;;;4992777;28;20104;-72
2023/01/04 10:42:24;;;;;;;24.52;4.25;;;11.50;99.90;;;;;;5009565;28;20041;-72
2023/01/04 10:44:55;;;;;;;25.48;5.65;;;11.50;99.90;;;;;;4985483;28;20042;-71
2023/01/04 10:47:43;;;;;;;29.50;5.68;;;11.50;99.90;;;;;;4978017;28;20116;-73
2023/01/04 10:50:38;;;;;;;26.48;5.30;;;11.60;99.90;;;;;;5010576;28;20054;-72
2023/01/04 10:53:24;;;;;;;26.42;4.80;;;11.50;99.90;;;;;;4992423;28;20052;-72
2023/01/04 10:56:18;;;;;;;26.30;5.22;;;11.60;99.90;;;;;;4993513;28;20108;-72
2023/01/04 10:58:59;;;;;;;30.52;6.15;;;11.60;99.90;;;;;;4995654;28;20133;-71
2023/01/04 11:01:30;;;;;;;;;;;11.50;99.90;;;;;;4995232;28;20049;-73
2023/01/04 11:04:28;;;;;;;24.17;5.68;;;11.60;99.90;;;;;;4997128;28;19996;-72
2023/01/04 11:07:14;;;;;;;28.90;6.22;;;11.60;99.90;;;;;;5013248;28;20124;-72
2023/01/04 11:09:49;;;;;;;20.27;5.05;;;11.60;99.90;;;;;;4994787;28;20058;-71
2023/01/04 11:12:29;;;;;;;29.73;6.82;;;11.70;99.90;;;;;;5012027;28;20045;-71
2023/01/04 11:14:55;;;;;;;17.13;3.70;;;11.70;99.90;;;;;;5013363;28;20097;-71
2023/01/04 11:17:30;;;;;;;25.38;5.22;;;11.70;99.90;;;;;;4996358;28;20129;-71
2023/01/04 11:19:55;;;;;;;28.02;4.90;;;11.80;99.90;;;;;;5013357;28;20029;-71
2023/01/04 11:22:46;;;;;;;16.85;4.03;;;11.80;99.90;;;;;;5013723;28;20494;-71
2023/01/04 11:25:16;;;;;;;24.63;5.10;;;11.90;99.90;;;;;;4994202;28;20060;-71
2023/01/04 11:28:07;;;;;;;;;;;11.90;99.90;;;;;;5000124;28;20356;-71
2023/01/04 11:30:50;;;;;;;22.98;5.22;;;11.90;99.90;;;;;;5010235;28;20504;-70
2023/01/04 11:33:26;;;;;;;19.27;3.80;;;12.00;99.90;;;;;;4988847;28;20443;-72
2023/01/04 11:35:55;;;;;;;23.35;4.32;;;12.00;99.90;;;;;;5031313;28;20052;-72
2023/01/04 11:38:31;;;;;;;18.80;3.88;;;12.00;99.90;;;;;;4993025;28;20042;-72
2023/01/04 11:41:04;;;;;;;17.08;4.43;;;12.00;99.90;;;;;;5030545;28;20555;-73
2023/01/04 11:43:44;;;;;;;20.10;4.10;;;12.00;99.90;;;;;;5015030;28;20048;-71
2023/01/04 11:46:18;;;;;;;27.83;4.70;;;12.00;99.90;;;;;;5024327;28;20045;-71
2023/01/04 11:48:53;;;;;;;16.30;3.90;;;11.90;99.90;;;;;;5016869;28;20061;-70
2023/01/04 11:51:35;;;;;;;16.88;3.10;;;12.00;99.90;;;;;;5015851;28;20099;-72
2023/01/04 11:54:20;;;;;;;11.98;3.15;;;11.90;99.90;;;;;;5007788;28;20113;-73
2023/01/04 11:57:08;;;;;;;13.55;3.38;;;11.90;99.90;;;;;;5009086;28;20115;-72
2023/01/04 11:59:34;;;;;;;16.70;3.15;;;11.90;99.90;;;;;;5032322;28;20053;-74
2023/01/04 12:02:31;;;;;;;10.95;3.00;;;11.90;99.90;;;;;;5003235;28;20041;-73
2023/01/04 12:05:19;;;;;;;12.50;3.03;;;11.90;99.90;;;;;;4996408;28;20034;-74
2023/01/04 12:07:53;;;;;;;10.93;1.80;;;11.90;99.90;;;;;;5018303;28;20053;-75
2023/01/04 12:10:25;;;;;;;8.15;2.70;;;11.90;99.90;;;;;;5031940;28;20493;-76
2023/01/04 12:12:59;;;;;;;7.95;1.38;;;11.90;99.90;;;;;;5018910;28;20053;-76
2023/01/04 12:15:55;;;;;;;7.10;1.80;;;12.00;99.90;;;;;;5022713;28;20101;-74
2023/01/04 12:18:40;;;;;;;6.22;1.23;;;11.90;99.90;;;;;;4998539;28;20057;-77
2023/01/04 12:21:25;;;;;;;4.18;1.10;;;11.90;99.90;;;;;;5003940;28;20714;-76
2023/01/04 12:23:58;;;;;;;6.43;1.80;;;11.90;99.90;;;;;;5032175;28;20053;-75
2023/01/04 12:26:24;;;;;;;3.20;0.90;;;11.90;99.90;;;;;;5021281;28;20444;-76
2023/01/04 12:29:28;;;;;;;7.28;1.35;;;12.00;99.90;;;;;;5024200;28;20046;-75
2023/01/04 12:32:01;;;;;;;6.40;1.88;;;11.90;99.90;;;;;;5015759;28;20053;-75
2023/01/04 12:34:36;;;;;;;6.05;1.42;;;11.90;99.90;;;;;;4999591;28;20421;-72
2023/01/04 12:37:10;;;;;;;10.88;1.70;;;11.90;99.90;;;;;;4999736;28;20104;-73
2023/01/04 12:39:43;;;;;;;8.07;1.88;;;11.90;99.90;;;;;;4996297;28;20083;-73
2023/01/04 12:42:25;;;;;;;9.60;1.92;;;11.90;99.90;;;;;;5031800;28;20482;-73
2023/01/04 12:44:51;;;;;;;10.43;1.95;;;11.90;99.90;;;;;;5029796;28;20565;-74
2023/01/04 12:50:26;;;;;;;12.85;2.67;;;11.90;99.90;;;;;;5046595;28;20134;-72
2023/01/04 12:53:09;;;;;;;10.55;2.28;;;11.80;99.90;;;;;;5024349;28;20701;-77
2023/01/04 12:55:51;;;;;;;14.43;3.30;;;11.80;99.90;;;;;;5015241;28;20041;-75
2023/01/04 12:58:35;;;;;;;21.45;4.20;;;11.80;99.90;;;;;;5005879;28;20053;-77
2023/01/04 13:01:03;;;;;;;20.80;4.68;;;11.80;99.90;;;;;;4994428;28;20042;-77
2023/01/04 13:03:36;;;;;;;19.80;3.65;;;11.80;99.90;;;;;;4978549;28;20033;-74
2023/01/04 13:06:06;;;;;;;15.32;4.70;;;11.80;99.90;;;;;;4978565;28;20053;-77
2023/01/04 13:08:46;;;;;;;23.60;5.05;;;11.90;99.90;;;;;;4978325;28;20534;-73
2023/01/04 13:11:51;;;;;;;23.08;4.43;;;11.90;99.90;;;;;;5011825;28;20077;-75
2023/01/04 13:14:38;;;;;;;27.17;5.22;;;11.90;99.90;;;;;;4995049;28;20510;-77
2023/01/04 13:17:24;;;;;;;16.20;4.32;;;11.90;99.90;;;;;;4978594;28;20076;-76
2023/01/04 13:19:50;;;;;;;14.75;4.88;;;11.90;99.90;;;;;;5012017;28;20494;-77
2023/01/04 13:22:36;;;;;;;24.08;5.63;;;11.90;99.90;;;;;;4995953;28;20077;-74
2023/01/04 13:25:04;;;;;;;24.48;5.70;;;11.90;99.90;;;;;;5006454;28;20044;-77
2023/01/04 13:27:36;;;;;;;17.98;4.43;;;11.90;99.90;;;;;;4992480;28;20053;-75
2023/01/04 13:30:03;;;;;;;19.15;4.50;;;11.90;99.90;;;;;;4994527;28;20124;-77
2023/01/04 13:32:38;;;;;;;23.75;5.05;;;11.90;99.90;;;;;;4978686;28;20046;-76
2023/01/04 13:35:12;;;;;;;19.75;5.20;;;11.90;99.90;;;;;;4991367;28;20038;-75
2023/01/04 13:37:50;;;;;;;24.10;4.38;;;11.90;99.90;;;;;;4985545;28;20052;-75
2023/01/04 13:40:25;;;;;;;20.90;5.03;;;11.90;99.90;;;;;;4993595;28;20042;-74
2023/01/04 13:43:00;;;;;;;17.70;3.85;;;11.80;99.90;;;;;;5011714;28;20069;-76
2023/01/04 13:46:04;;;;;;;16.73;4.05;;;11.80;99.90;;;;;;4978594;28;20045;-73
2023/01/04 13:48:42;;;;;;;14.98;3.47;;;11.80;99.90;;;;;;4994355;28;20096;-74
2023/01/04 13:51:28;;;;;;;18.38;5.03;;;11.80;99.90;;;;;;5030141;28;20049;-76
2023/01/04 13:54:05;;;;;;;20.80;4.60;;;11.80;99.90;;;;;;5013961;28;20522;-79
2023/01/04 13:56:33;;;;;;;22.35;4.13;;;11.80;99.90;;;;;;5031312;28;20409;-78
2023/01/04 13:59:06;;;;;;;22.05;4.22;;;11.80;99.90;;;;;;5014603;28;20080;-77
2023/01/04 14:01:36;;;;;;;19.80;4.28;;;11.80;99.90;;;;;;5013800;28;20033;-75
2023/01/04 14:04:18;;;;;;;22.65;3.72;;;11.80;99.90;;;;;;5013602;28;20124;-77
2023/01/04 14:06:47;;;;;;;23.63;4.13;;;11.80;99.90;;;;;;5011561;28;20445;-76
2023/01/04 14:09:25;;;;;;;26.15;5.38;;;11.70;99.90;;;;;;4994459;28;20046;-80
2023/01/04 14:12:03;;;;;;;17.63;3.95;;;11.70;99.90;;;;;;5011343;28;20034;-75
2023/01/04 14:14:36;;;;;;;19.80;3.95;;;11.80;99.90;;;;;;4993654;28;20537;-75
2023/01/04 14:17:33;;;;;;;18.50;4.80;;;11.80;99.90;;;;;;5005489;28;20096;-78
2023/01/04 14:20:25;;;;;;;19.15;3.63;;;11.80;99.90;;;;;;5025811;28;20041;-77
2023/01/04 14:22:58;;;;;;;18.58;3.97;;;11.80;99.90;;;;;;5012839;28;20053;-79
2023/01/04 14:25:36;;;;;;;21.15;3.53;;;11.80;99.90;;;;;;5030663;28;20041;-77